sensor_id;sensor_type;location;lat;lon;timestamp;P1;durP1;ratioP1;P2;durP2;ratioP2
15936;SDS011;9163;48.818;8.976;2023-03-12T00:01:17;10.03;;;4.57;;
15936;SDS011;9163;48.818;8.976;2023-03-12T00:03:46;8.43;;;4.30;;
15936;SDS011;9163;48.818;8.976;2023-03-12T00:06:14;9.50;;;4.43;;
15936;SDS011;9163;48.818;8.976;2023-03-12T00:08:42;10.40;;;4.53;;
15936;SDS011;9163;48.818;8.976;2023-03-12T00:11:10;10.03;;;4.57;;
15936;SDS011;9163;48.818;8.976;2023-03-12T00:13:38;9.30;;;4.13;;
15936;SDS011;9163;48.818;8.976;2023-03-12T00:16:06;10.03;;;5.03;;
15936;SDS011;9163;48.818;8.976;2023-03-12T00:18:37;9.30;;;4.50;;
15936;SDS011;9163;48.818;8.976;2023-03-12T00:21:04;10.13;;;4.40;;
15936;SDS011;9163;48.818;8.976;2023-03-12T00:23:32;9.67;;;4.00;;
15936;SDS011;9163;48.818;8.976;2023-03-12T00:25:59;9.57;;;4.10;;
15936;SDS011;9163;48.818;8.976;2023-03-12T00:28:27;8.80;;;4.70;;
15936;SDS011;9163;48.818;8.976;2023-03-12T00:30:54;9.57;;;4.07;;
15936;SDS011;9163;48.818;8.976;2023-03-12T00:33:22;9.03;;;4.20;;
15936;SDS011;9163;48.818;8.976;2023-03-12T00:35:51;6.77;;;3.93;;
15936;SDS011;9163;48.818;8.976;2023-03-12T00:38:19;6.77;;;4.23;;
15936;SDS011;9163;48.818;8.976;2023-03-12T00:40:46;5.83;;;4.00;;
15936;SDS011;9163;48.818;8.976;2023-03-12T00:43:14;7.33;;;4.33;;
15936;SDS011;9163;48.818;8.976;2023-03-12T00:45:41;7.73;;;4.30;;
15936;SDS011;9163;48.818;8.976;2023-03-12T00:48:08;8.07;;;4.03;;
15936;SDS011;9163;48.818;8.976;2023-03-12T00:50:35;7.33;;;4.03;;
15936;SDS011;9163;48.818;8.976;2023-03-12T00:53:04;7.50;;;4.13;;
15936;SDS011;9163;48.818;8.976;2023-03-12T00:55:31;10.20;;;4.43;;
15936;SDS011;9163;48.818;8.976;2023-03-12T00:57:59;9.10;;;3.70;;
15936;SDS011;9163;48.818;8.976;2023-03-12T01:00:26;6.93;;;4.43;;
15936;SDS011;9163;48.818;8.976;2023-03-12T01:02:53;7.87;;;3.67;;
15936;SDS011;9163;48.818;8.976;2023-03-12T01:05:21;6.73;;;3.60;;
15936;SDS011;9163;48.818;8.976;2023-03-12T01:07:48;6.07;;;3.70;;
15936;SDS011;9163;48.818;8.976;2023-03-12T01:10:18;9.70;;;3.70;;
15936;SDS011;9163;48.818;8.976;2023-03-12T01:12:46;8.70;;;3.67;;
15936;SDS011;9163;48.818;8.976;2023-03-12T01:15:14;7.27;;;4.50;;
15936;SDS011;9163;48.818;8.976;2023-03-12T01:17:43;7.27;;;3.70;;
15936;SDS011;9163;48.818;8.976;2023-03-12T01:20:11;9.17;;;3.93;;
15936;SDS011;9163;48.818;8.976;2023-03-12T01:22:39;10.07;;;4.17;;
15936;SDS011;9163;48.818;8.976;2023-03-12T01:25:06;8.30;;;4.13;;
15936;SDS011;9163;48.818;8.976;2023-03-12T01:27:36;6.70;;;4.00;;
15936;SDS011;9163;48.818;8.976;2023-03-12T01:30:03;10.93;;;4.53;;
15936;SDS011;9163;48.818;8.976;2023-03-12T01:32:32;9.73;;;3.50;;
15936;SDS011;9163;48.818;8.976;2023-03-12T01:34:59;8.30;;;3.50;;
15936;SDS011;9163;48.818;8.976;2023-03-12T01:37:26;7.80;;;3.60;;
15936;SDS011;9163;48.818;8.976;2023-03-12T01:39:54;8.77;;;3.63;;
15936;SDS011;9163;48.818;8.976;2023-03-12T01:42:21;6.90;;;3.97;;
15936;SDS011;9163;48.818;8.976;2023-03-12T01:44:51;8.30;;;4.10;;
15936;SDS011;9163;48.818;8.976;2023-03-12T01:47:20;7.73;;;3.90;;
15936;SDS011;9163;48.818;8.976;2023-03-12T01:49:47;6.87;;;3.73;;
15936;SDS011;9163;48.818;8.976;2023-03-12T01:52:19;7.47;;;3.53;;
15936;SDS011;9163;48.818;8.976;2023-03-12T01:54:52;6.97;;;3.23;;
15936;SDS011;9163;48.818;8.976;2023-03-12T01:57:22;7.63;;;3.67;;
15936;SDS011;9163;48.818;8.976;2023-03-12T01:59:56;7.47;;;3.80;;
15936;SDS011;9163;48.818;8.976;2023-03-12T02:02:26;7.37;;;3.50;;
15936;SDS011;9163;48.818;8.976;2023-03-12T02:04:56;7.97;;;3.37;;
15936;SDS011;9163;48.818;8.976;2023-03-12T02:07:28;6.40;;;3.30;;
15936;SDS011;9163;48.818;8.976;2023-03-12T02:09:55;7.87;;;3.10;;
15936;SDS011;9163;48.818;8.976;2023-03-12T02:12:23;7.07;;;3.50;;
15936;SDS011;9163;48.818;8.976;2023-03-12T02:14:50;10.47;;;4.50;;
15936;SDS011;9163;48.818;8.976;2023-03-12T02:17:19;5.63;;;3.17;;
15936;SDS011;9163;48.818;8.976;2023-03-12T02:19:48;10.13;;;3.83;;
15936;SDS011;9163;48.818;8.976;2023-03-12T02:22:21;6.90;;;3.50;;
15936;SDS011;9163;48.818;8.976;2023-03-12T02:24:50;18.67;;;5.87;;
15936;SDS011;9163;48.818;8.976;2023-03-12T02:27:23;21.07;;;6.50;;
15936;SDS011;9163;48.818;8.976;2023-03-12T02:29:50;26.67;;;7.03;;
15936;SDS011;9163;48.818;8.976;2023-03-12T02:32:19;28.87;;;8.77;;
15936;SDS011;9163;48.818;8.976;2023-03-12T02:34:50;15.77;;;4.67;;
15936;SDS011;9163;48.818;8.976;2023-03-12T02:37:17;8.20;;;3.43;;
15936;SDS011;9163;48.818;8.976;2023-03-12T02:39:45;5.77;;;3.20;;
15936;SDS011;9163;48.818;8.976;2023-03-12T02:42:19;7.67;;;3.47;;
15936;SDS011;9163;48.818;8.976;2023-03-12T02:44:48;6.83;;;3.13;;
15936;SDS011;9163;48.818;8.976;2023-03-12T02:47:16;6.90;;;3.13;;
15936;SDS011;9163;48.818;8.976;2023-03-12T02:49:43;6.57;;;3.33;;
15936;SDS011;9163;48.818;8.976;2023-03-12T02:52:11;6.73;;;3.27;;
15936;SDS011;9163;48.818;8.976;2023-03-12T02:54:38;5.80;;;3.10;;
15936;SDS011;9163;48.818;8.976;2023-03-12T02:57:05;6.67;;;3.37;;
15936;SDS011;9163;48.818;8.976;2023-03-12T02:59:32;7.30;;;3.40;;
15936;SDS011;9163;48.818;8.976;2023-03-12T03:02:01;16.07;;;5.57;;
15936;SDS011;9163;48.818;8.976;2023-03-12T03:04:29;21.50;;;8.17;;
15936;SDS011;9163;48.818;8.976;2023-03-12T03:06:59;14.10;;;5.83;;
15936;SDS011;9163;48.818;8.976;2023-03-12T03:09:26;10.90;;;5.33;;
15936;SDS011;9163;48.818;8.976;2023-03-12T03:11:53;9.53;;;4.80;;
15936;SDS011;9163;48.818;8.976;2023-03-12T03:14:21;9.13;;;4.20;;
15936;SDS011;9163;48.818;8.976;2023-03-12T03:16:48;7.93;;;3.70;;
15936;SDS011;9163;48.818;8.976;2023-03-12T03:19:17;7.20;;;3.63;;
15936;SDS011;9163;48.818;8.976;2023-03-12T03:21:44;10.43;;;3.27;;
15936;SDS011;9163;48.818;8.976;2023-03-12T03:24:12;8.43;;;4.17;;
15936;SDS011;9163;48.818;8.976;2023-03-12T03:26:39;15.27;;;4.30;;
15936;SDS011;9163;48.818;8.976;2023-03-12T03:29:06;21.67;;;6.93;;
15936;SDS011;9163;48.818;8.976;2023-03-12T03:31:33;19.23;;;5.60;;
15936;SDS011;9163;48.818;8.976;2023-03-12T03:34:01;11.87;;;4.93;;
15936;SDS011;9163;48.818;8.976;2023-03-12T03:36:30;11.83;;;5.37;;
15936;SDS011;9163;48.818;8.976;2023-03-12T03:38:57;16.33;;;5.47;;
15936;SDS011;9163;48.818;8.976;2023-03-12T03:41:24;17.70;;;5.13;;
15936;SDS011;9163;48.818;8.976;2023-03-12T03:43:54;17.27;;;6.20;;
15936;SDS011;9163;48.818;8.976;2023-03-12T03:46:23;16.07;;;6.47;;
15936;SDS011;9163;48.818;8.976;2023-03-12T03:48:51;16.57;;;5.93;;
15936;SDS011;9163;48.818;8.976;2023-03-12T03:51:18;8.60;;;4.17;;
15936;SDS011;9163;48.818;8.976;2023-03-12T03:53:46;15.67;;;4.97;;
15936;SDS011;9163;48.818;8.976;2023-03-12T03:56:14;9.63;;;3.80;;
15936;SDS011;9163;48.818;8.976;2023-03-12T03:58:41;5.43;;;3.17;;
15936;SDS011;9163;48.818;8.976;2023-03-12T04:01:09;6.77;;;3.70;;
15936;SDS011;9163;48.818;8.976;2023-03-12T04:03:38;5.30;;;3.10;;
15936;SDS011;9163;48.818;8.976;2023-03-12T04:06:05;7.00;;;3.33;;
15936;SDS011;9163;48.818;8.976;2023-03-12T04:08:33;9.30;;;3.80;;
15936;SDS011;9163;48.818;8.976;2023-03-12T04:11:06;19.97;;;6.13;;
15936;SDS011;9163;48.818;8.976;2023-03-12T04:13:34;7.47;;;3.50;;
15936;SDS011;9163;48.818;8.976;2023-03-12T04:16:02;7.43;;;3.70;;
15936;SDS011;9163;48.818;8.976;2023-03-12T04:18:30;10.07;;;4.57;;
15936;SDS011;9163;48.818;8.976;2023-03-12T04:20:57;5.40;;;2.87;;
15936;SDS011;9163;48.818;8.976;2023-03-12T04:23:25;5.80;;;2.93;;
15936;SDS011;9163;48.818;8.976;2023-03-12T04:25:52;6.73;;;2.60;;
15936;SDS011;9163;48.818;8.976;2023-03-12T04:28:21;5.07;;;2.80;;
15936;SDS011;9163;48.818;8.976;2023-03-12T04:30:53;4.53;;;2.80;;
15936;SDS011;9163;48.818;8.976;2023-03-12T04:33:20;4.90;;;2.77;;
15936;SDS011;9163;48.818;8.976;2023-03-12T04:35:49;6.87;;;2.50;;
15936;SDS011;9163;48.818;8.976;2023-03-12T04:38:17;6.17;;;2.60;;
15936;SDS011;9163;48.818;8.976;2023-03-12T04:40:44;7.07;;;2.70;;
15936;SDS011;9163;48.818;8.976;2023-03-12T04:43:12;6.73;;;2.67;;
15936;SDS011;9163;48.818;8.976;2023-03-12T04:45:40;6.20;;;2.97;;
15936;SDS011;9163;48.818;8.976;2023-03-12T04:48:08;6.73;;;2.83;;
15936;SDS011;9163;48.818;8.976;2023-03-12T04:50:35;5.87;;;2.87;;
15936;SDS011;9163;48.818;8.976;2023-03-12T04:53:02;5.67;;;2.97;;
15936;SDS011;9163;48.818;8.976;2023-03-12T04:55:29;4.53;;;3.00;;
15936;SDS011;9163;48.818;8.976;2023-03-12T04:57:57;6.10;;;2.90;;
15936;SDS011;9163;48.818;8.976;2023-03-12T05:00:24;5.63;;;2.53;;
15936;SDS011;9163;48.818;8.976;2023-03-12T05:02:53;5.07;;;3.00;;
15936;SDS011;9163;48.818;8.976;2023-03-12T05:05:20;6.93;;;3.30;;
15936;SDS011;9163;48.818;8.976;2023-03-12T05:07:47;12.20;;;2.87;;
15936;SDS011;9163;48.818;8.976;2023-03-12T05:10:15;3.53;;;2.30;;
15936;SDS011;9163;48.818;8.976;2023-03-12T05:12:42;5.30;;;2.77;;
15936;SDS011;9163;48.818;8.976;2023-03-12T05:15:09;5.53;;;2.83;;
15936;SDS011;9163;48.818;8.976;2023-03-12T05:17:37;5.53;;;2.70;;
15936;SDS011;9163;48.818;8.976;2023-03-12T05:20:05;6.17;;;2.73;;
15936;SDS011;9163;48.818;8.976;2023-03-12T05:22:33;9.23;;;3.40;;
15936;SDS011;9163;48.818;8.976;2023-03-12T05:25:01;7.33;;;2.60;;
15936;SDS011;9163;48.818;8.976;2023-03-12T05:27:28;4.20;;;2.70;;
15936;SDS011;9163;48.818;8.976;2023-03-12T05:29:55;5.53;;;2.93;;
15936;SDS011;9163;48.818;8.976;2023-03-12T05:32:23;4.77;;;2.90;;
15936;SDS011;9163;48.818;8.976;2023-03-12T05:34:50;7.60;;;2.70;;
15936;SDS011;9163;48.818;8.976;2023-03-12T05:37:18;5.53;;;2.90;;
15936;SDS011;9163;48.818;8.976;2023-03-12T05:39:46;4.47;;;2.73;;
15936;SDS011;9163;48.818;8.976;2023-03-12T05:42:13;8.80;;;4.50;;
15936;SDS011;9163;48.818;8.976;2023-03-12T05:44:41;7.23;;;4.90;;
15936;SDS011;9163;48.818;8.976;2023-03-12T05:47:08;9.20;;;4.60;;
15936;SDS011;9163;48.818;8.976;2023-03-12T05:49:36;8.20;;;5.20;;
15936;SDS011;9163;48.818;8.976;2023-03-12T05:52:03;7.93;;;4.70;;
15936;SDS011;9163;48.818;8.976;2023-03-12T05:54:32;8.20;;;4.73;;
15936;SDS011;9163;48.818;8.976;2023-03-12T05:56:59;9.10;;;5.00;;
15936;SDS011;9163;48.818;8.976;2023-03-12T05:59:27;8.07;;;4.93;;
15936;SDS011;9163;48.818;8.976;2023-03-12T06:01:55;8.97;;;4.90;;
15936;SDS011;9163;48.818;8.976;2023-03-12T06:04:24;8.50;;;4.70;;
15936;SDS011;9163;48.818;8.976;2023-03-12T06:06:51;7.90;;;4.87;;
15936;SDS011;9163;48.818;8.976;2023-03-12T06:09:18;8.23;;;4.80;;
15936;SDS011;9163;48.818;8.976;2023-03-12T06:11:47;7.17;;;4.60;;
15936;SDS011;9163;48.818;8.976;2023-03-12T06:14:14;6.83;;;4.87;;
15936;SDS011;9163;48.818;8.976;2023-03-12T06:16:41;6.27;;;4.63;;
15936;SDS011;9163;48.818;8.976;2023-03-12T06:19:09;11.90;;;5.20;;
15936;SDS011;9163;48.818;8.976;2023-03-12T06:21:38;9.07;;;5.20;;
15936;SDS011;9163;48.818;8.976;2023-03-12T06:24:07;8.73;;;5.00;;
15936;SDS011;9163;48.818;8.976;2023-03-12T06:26:35;9.43;;;5.13;;
15936;SDS011;9163;48.818;8.976;2023-03-12T06:29:03;8.77;;;5.20;;
15936;SDS011;9163;48.818;8.976;2023-03-12T06:31:30;7.67;;;4.77;;
15936;SDS011;9163;48.818;8.976;2023-03-12T06:33:58;12.70;;;5.80;;
15936;SDS011;9163;48.818;8.976;2023-03-12T06:36:25;9.80;;;5.23;;
15936;SDS011;9163;48.818;8.976;2023-03-12T06:38:52;8.63;;;6.07;;
15936;SDS011;9163;48.818;8.976;2023-03-12T06:41:20;9.37;;;5.70;;
15936;SDS011;9163;48.818;8.976;2023-03-12T06:43:47;7.33;;;5.07;;
15936;SDS011;9163;48.818;8.976;2023-03-12T06:46:16;11.47;;;5.10;;
15936;SDS011;9163;48.818;8.976;2023-03-12T06:48:46;8.77;;;4.80;;
15936;SDS011;9163;48.818;8.976;2023-03-12T06:51:14;8.60;;;5.23;;
15936;SDS011;9163;48.818;8.976;2023-03-12T06:53:43;11.30;;;4.73;;
15936;SDS011;9163;48.818;8.976;2023-03-12T06:56:10;8.20;;;4.63;;
15936;SDS011;9163;48.818;8.976;2023-03-12T06:58:38;7.63;;;4.67;;
15936;SDS011;9163;48.818;8.976;2023-03-12T07:01:06;7.33;;;4.90;;
15936;SDS011;9163;48.818;8.976;2023-03-12T07:03:35;10.00;;;5.00;;
15936;SDS011;9163;48.818;8.976;2023-03-12T07:06:02;7.90;;;4.90;;
15936;SDS011;9163;48.818;8.976;2023-03-12T07:08:30;8.87;;;5.60;;
15936;SDS011;9163;48.818;8.976;2023-03-12T07:10:58;10.63;;;5.77;;
15936;SDS011;9163;48.818;8.976;2023-03-12T07:13:25;8.73;;;5.13;;
15936;SDS011;9163;48.818;8.976;2023-03-12T07:15:53;7.33;;;4.97;;
15936;SDS011;9163;48.818;8.976;2023-03-12T07:18:20;9.87;;;5.03;;
15936;SDS011;9163;48.818;8.976;2023-03-12T07:20:48;9.03;;;5.40;;
15936;SDS011;9163;48.818;8.976;2023-03-12T07:23:17;8.53;;;5.43;;
15936;SDS011;9163;48.818;8.976;2023-03-12T07:25:45;9.97;;;5.63;;
15936;SDS011;9163;48.818;8.976;2023-03-12T07:28:12;7.33;;;5.43;;
15936;SDS011;9163;48.818;8.976;2023-03-12T07:30:40;10.03;;;5.33;;
15936;SDS011;9163;48.818;8.976;2023-03-12T07:33:08;8.60;;;5.50;;
15936;SDS011;9163;48.818;8.976;2023-03-12T07:35:37;7.63;;;5.57;;
15936;SDS011;9163;48.818;8.976;2023-03-12T07:38:06;7.67;;;5.60;;
15936;SDS011;9163;48.818;8.976;2023-03-12T07:40:34;10.23;;;5.97;;
15936;SDS011;9163;48.818;8.976;2023-03-12T07:43:02;12.23;;;6.30;;
15936;SDS011;9163;48.818;8.976;2023-03-12T07:45:35;9.93;;;6.20;;
15936;SDS011;9163;48.818;8.976;2023-03-12T07:48:03;10.57;;;6.07;;
15936;SDS011;9163;48.818;8.976;2023-03-12T07:50:31;10.00;;;6.30;;
15936;SDS011;9163;48.818;8.976;2023-03-12T07:52:58;10.07;;;6.53;;
15936;SDS011;9163;48.818;8.976;2023-03-12T07:55:27;10.87;;;6.70;;
15936;SDS011;9163;48.818;8.976;2023-03-12T07:57:54;9.23;;;6.80;;
15936;SDS011;9163;48.818;8.976;2023-03-12T08:00:23;11.23;;;7.50;;
15936;SDS011;9163;48.818;8.976;2023-03-12T08:02:51;10.63;;;7.40;;
15936;SDS011;9163;48.818;8.976;2023-03-12T08:05:18;12.57;;;8.47;;
15936;SDS011;9163;48.818;8.976;2023-03-12T08:07:49;12.23;;;8.20;;
15936;SDS011;9163;48.818;8.976;2023-03-12T08:10:16;13.17;;;8.27;;
15936;SDS011;9163;48.818;8.976;2023-03-12T08:12:45;12.17;;;8.03;;
15936;SDS011;9163;48.818;8.976;2023-03-12T08:15:13;13.43;;;8.73;;
15936;SDS011;9163;48.818;8.976;2023-03-12T08:17:40;12.03;;;8.23;;
15936;SDS011;9163;48.818;8.976;2023-03-12T08:20:08;11.83;;;8.17;;
15936;SDS011;9163;48.818;8.976;2023-03-12T08:22:36;12.87;;;8.33;;
15936;SDS011;9163;48.818;8.976;2023-03-12T08:25:05;15.20;;;8.60;;
15936;SDS011;9163;48.818;8.976;2023-03-12T08:27:33;13.33;;;8.60;;
15936;SDS011;9163;48.818;8.976;2023-03-12T08:30:02;14.00;;;9.17;;
15936;SDS011;9163;48.818;8.976;2023-03-12T08:32:30;14.00;;;9.33;;
15936;SDS011;9163;48.818;8.976;2023-03-12T08:34:58;13.93;;;9.30;;
15936;SDS011;9163;48.818;8.976;2023-03-12T08:37:25;13.23;;;9.30;;
15936;SDS011;9163;48.818;8.976;2023-03-12T08:39:52;14.50;;;9.70;;
15936;SDS011;9163;48.818;8.976;2023-03-12T08:42:19;13.73;;;9.30;;
15936;SDS011;9163;48.818;8.976;2023-03-12T08:44:47;14.97;;;9.67;;
15936;SDS011;9163;48.818;8.976;2023-03-12T08:47:15;14.20;;;9.73;;
15936;SDS011;9163;48.818;8.976;2023-03-12T08:49:42;14.67;;;10.07;;
15936;SDS011;9163;48.818;8.976;2023-03-12T08:52:10;15.97;;;10.83;;
15936;SDS011;9163;48.818;8.976;2023-03-12T08:54:37;18.40;;;10.33;;
15936;SDS011;9163;48.818;8.976;2023-03-12T08:57:04;14.80;;;9.93;;
15936;SDS011;9163;48.818;8.976;2023-03-12T08:59:31;17.93;;;11.10;;
15936;SDS011;9163;48.818;8.976;2023-03-12T09:01:59;15.37;;;10.67;;
15936;SDS011;9163;48.818;8.976;2023-03-12T09:04:28;16.03;;;10.77;;
15936;SDS011;9163;48.818;8.976;2023-03-12T09:06:55;18.07;;;10.47;;
15936;SDS011;9163;48.818;8.976;2023-03-12T09:09:22;15.50;;;10.37;;
15936;SDS011;9163;48.818;8.976;2023-03-12T09:11:49;15.67;;;10.27;;
15936;SDS011;9163;48.818;8.976;2023-03-12T09:14:17;15.53;;;10.07;;
15936;SDS011;9163;48.818;8.976;2023-03-12T09:16:44;16.83;;;10.03;;
15936;SDS011;9163;48.818;8.976;2023-03-12T09:19:11;15.53;;;10.20;;
15936;SDS011;9163;48.818;8.976;2023-03-12T09:21:40;15.50;;;9.50;;
15936;SDS011;9163;48.818;8.976;2023-03-12T09:24:07;18.77;;;9.70;;
15936;SDS011;9163;48.818;8.976;2023-03-12T09:26:35;12.20;;;9.13;;
15936;SDS011;9163;48.818;8.976;2023-03-12T09:29:02;13.90;;;9.47;;
15936;SDS011;9163;48.818;8.976;2023-03-12T09:31:30;14.47;;;8.83;;
15936;SDS011;9163;48.818;8.976;2023-03-12T09:33:57;12.97;;;8.87;;
15936;SDS011;9163;48.818;8.976;2023-03-12T09:36:24;13.17;;;9.10;;
15936;SDS011;9163;48.818;8.976;2023-03-12T09:38:54;10.93;;;8.13;;
15936;SDS011;9163;48.818;8.976;2023-03-12T09:41:22;10.47;;;7.57;;
15936;SDS011;9163;48.818;8.976;2023-03-12T09:43:52;11.00;;;7.47;;
15936;SDS011;9163;48.818;8.976;2023-03-12T09:46:23;12.53;;;7.30;;
15936;SDS011;9163;48.818;8.976;2023-03-12T09:48:55;10.17;;;6.60;;
15936;SDS011;9163;48.818;8.976;2023-03-12T09:51:27;8.67;;;6.33;;
15936;SDS011;9163;48.818;8.976;2023-03-12T09:54:00;8.67;;;6.40;;
15936;SDS011;9163;48.818;8.976;2023-03-12T09:56:29;8.83;;;6.43;;
15936;SDS011;9163;48.818;8.976;2023-03-12T09:58:58;9.70;;;5.90;;
15936;SDS011;9163;48.818;8.976;2023-03-12T10:01:29;9.27;;;5.37;;
15936;SDS011;9163;48.818;8.976;2023-03-12T10:04:17;8.50;;;6.20;;
15936;SDS011;9163;48.818;8.976;2023-03-12T10:06:51;7.57;;;5.50;;
15936;SDS011;9163;48.818;8.976;2023-03-12T10:09:31;5.47;;;4.47;;
15936;SDS011;9163;48.818;8.976;2023-03-12T10:12:07;4.30;;;3.87;;
15936;SDS011;9163;48.818;8.976;2023-03-12T10:14:46;4.10;;;3.10;;
15936;SDS011;9163;48.818;8.976;2023-03-12T10:17:38;3.63;;;2.40;;
15936;SDS011;9163;48.818;8.976;2023-03-12T10:20:21;3.03;;;2.63;;
15936;SDS011;9163;48.818;8.976;2023-03-12T10:23:05;4.87;;;3.70;;
15936;SDS011;9163;48.818;8.976;2023-03-12T10:25:39;4.80;;;2.90;;
15936;SDS011;9163;48.818;8.976;2023-03-12T10:28:13;3.40;;;3.00;;
15936;SDS011;9163;48.818;8.976;2023-03-12T10:30:45;4.40;;;3.27;;
15936;SDS011;9163;48.818;8.976;2023-03-12T10:33:18;3.00;;;1.90;;
15936;SDS011;9163;48.818;8.976;2023-03-12T10:35:46;3.63;;;2.80;;
15936;SDS011;9163;48.818;8.976;2023-03-12T10:38:15;2.43;;;2.00;;
15936;SDS011;9163;48.818;8.976;2023-03-12T10:40:46;2.00;;;1.60;;
15936;SDS011;9163;48.818;8.976;2023-03-12T10:43:14;3.30;;;1.97;;
15936;SDS011;9163;48.818;8.976;2023-03-12T10:45:42;3.63;;;1.63;;
15936;SDS011;9163;48.818;8.976;2023-03-12T10:48:17;2.87;;;1.57;;
15936;SDS011;9163;48.818;8.976;2023-03-12T10:50:58;3.90;;;1.50;;
15936;SDS011;9163;48.818;8.976;2023-03-12T10:53:27;3.00;;;1.60;;
15936;SDS011;9163;48.818;8.976;2023-03-12T10:56:02;1.97;;;1.10;;
15936;SDS011;9163;48.818;8.976;2023-03-12T10:58:32;3.50;;;1.73;;
15936;SDS011;9163;48.818;8.976;2023-03-12T11:01:02;6.73;;;3.50;;
15936;SDS011;9163;48.818;8.976;2023-03-12T11:03:30;6.27;;;4.37;;
15936;SDS011;9163;48.818;8.976;2023-03-12T11:05:59;4.87;;;2.13;;
15936;SDS011;9163;48.818;8.976;2023-03-12T11:08:28;3.67;;;1.53;;
15936;SDS011;9163;48.818;8.976;2023-03-12T11:11:00;6.03;;;3.00;;
15936;SDS011;9163;48.818;8.976;2023-03-12T11:13:31;6.47;;;3.27;;
15936;SDS011;9163;48.818;8.976;2023-03-12T11:15:59;4.43;;;2.30;;
15936;SDS011;9163;48.818;8.976;2023-03-12T11:18:28;6.80;;;2.93;;
15936;SDS011;9163;48.818;8.976;2023-03-12T11:21:14;7.53;;;3.53;;
15936;SDS011;9163;48.818;8.976;2023-03-12T11:23:43;5.23;;;3.17;;
15936;SDS011;9163;48.818;8.976;2023-03-12T11:26:15;4.67;;;1.80;;
15936;SDS011;9163;48.818;8.976;2023-03-12T11:28:45;4.13;;;1.60;;
15936;SDS011;9163;48.818;8.976;2023-03-12T11:31:15;5.97;;;2.83;;
15936;SDS011;9163;48.818;8.976;2023-03-12T11:33:47;3.47;;;1.23;;
15936;SDS011;9163;48.818;8.976;2023-03-12T11:36:18;5.03;;;2.10;;
15936;SDS011;9163;48.818;8.976;2023-03-12T11:39:04;5.13;;;2.20;;
15936;SDS011;9163;48.818;8.976;2023-03-12T11:41:45;4.20;;;2.30;;
15936;SDS011;9163;48.818;8.976;2023-03-12T11:44:25;6.20;;;2.43;;
15936;SDS011;9163;48.818;8.976;2023-03-12T11:47:03;5.50;;;2.37;;
15936;SDS011;9163;48.818;8.976;2023-03-12T11:49:45;3.33;;;1.33;;
15936;SDS011;9163;48.818;8.976;2023-03-12T11:52:27;6.73;;;3.10;;
15936;SDS011;9163;48.818;8.976;2023-03-12T11:55:03;8.43;;;3.20;;
15936;SDS011;9163;48.818;8.976;2023-03-12T11:57:58;7.20;;;3.90;;
15936;SDS011;9163;48.818;8.976;2023-03-12T12:00:43;8.33;;;3.53;;
15936;SDS011;9163;48.818;8.976;2023-03-12T12:03:26;7.70;;;3.10;;
15936;SDS011;9163;48.818;8.976;2023-03-12T12:06:13;6.73;;;2.10;;
15936;SDS011;9163;48.818;8.976;2023-03-12T12:11:41;4.83;;;1.80;;
15936;SDS011;9163;48.818;8.976;2023-03-12T12:14:19;5.47;;;1.50;;
15936;SDS011;9163;48.818;8.976;2023-03-12T12:16:59;3.90;;;1.80;;
15936;SDS011;9163;48.818;8.976;2023-03-12T12:19:43;5.87;;;1.87;;
15936;SDS011;9163;48.818;8.976;2023-03-12T12:22:23;5.80;;;2.03;;
15936;SDS011;9163;48.818;8.976;2023-03-12T12:25:09;3.40;;;1.73;;
15936;SDS011;9163;48.818;8.976;2023-03-12T12:27:46;9.00;;;2.17;;
15936;SDS011;9163;48.818;8.976;2023-03-12T12:30:21;5.37;;;1.77;;
15936;SDS011;9163;48.818;8.976;2023-03-12T12:33:00;4.13;;;1.67;;
15936;SDS011;9163;48.818;8.976;2023-03-12T12:35:35;7.33;;;2.37;;
15936;SDS011;9163;48.818;8.976;2023-03-12T12:38:06;6.57;;;2.00;;
15936;SDS011;9163;48.818;8.976;2023-03-12T12:40:39;6.43;;;1.80;;
15936;SDS011;9163;48.818;8.976;2023-03-12T12:43:20;6.77;;;2.53;;
15936;SDS011;9163;48.818;8.976;2023-03-12T12:45:54;4.33;;;1.43;;
15936;SDS011;9163;48.818;8.976;2023-03-12T12:48:25;5.60;;;1.90;;
15936;SDS011;9163;48.818;8.976;2023-03-12T12:50:57;5.50;;;2.43;;
15936;SDS011;9163;48.818;8.976;2023-03-12T12:53:28;9.70;;;3.33;;
15936;SDS011;9163;48.818;8.976;2023-03-12T12:56:05;7.83;;;1.70;;
15936;SDS011;9163;48.818;8.976;2023-03-12T12:58:42;6.37;;;1.60;;
15936;SDS011;9163;48.818;8.976;2023-03-12T13:01:33;5.33;;;1.50;;
15936;SDS011;9163;48.818;8.976;2023-03-12T13:04:03;6.07;;;1.73;;
15936;SDS011;9163;48.818;8.976;2023-03-12T13:09:33;5.57;;;1.50;;
15936;SDS011;9163;48.818;8.976;2023-03-12T13:12:06;5.50;;;1.70;;
15936;SDS011;9163;48.818;8.976;2023-03-12T13:14:39;4.33;;;1.70;;
15936;SDS011;9163;48.818;8.976;2023-03-12T13:17:18;4.40;;;1.43;;
15936;SDS011;9163;48.818;8.976;2023-03-12T13:19:47;5.47;;;1.60;;
15936;SDS011;9163;48.818;8.976;2023-03-12T13:22:19;4.80;;;1.67;;
15936;SDS011;9163;48.818;8.976;2023-03-12T13:24:57;7.03;;;1.77;;
15936;SDS011;9163;48.818;8.976;2023-03-12T13:27:35;5.60;;;1.50;;
15936;SDS011;9163;48.818;8.976;2023-03-12T13:30:26;5.87;;;1.60;;
15936;SDS011;9163;48.818;8.976;2023-03-12T13:33:13;7.00;;;1.77;;
15936;SDS011;9163;48.818;8.976;2023-03-12T13:35:47;9.63;;;1.90;;
15936;SDS011;9163;48.818;8.976;2023-03-12T13:38:36;7.73;;;2.17;;
15936;SDS011;9163;48.818;8.976;2023-03-12T13:41:25;7.47;;;1.63;;
15936;SDS011;9163;48.818;8.976;2023-03-12T13:43:57;9.37;;;1.80;;
15936;SDS011;9163;48.818;8.976;2023-03-12T13:46:38;7.47;;;2.10;;
15936;SDS011;9163;48.818;8.976;2023-03-12T13:49:11;8.23;;;2.20;;
15936;SDS011;9163;48.818;8.976;2023-03-12T13:51:44;7.17;;;1.93;;
15936;SDS011;9163;48.818;8.976;2023-03-12T13:54:28;5.93;;;1.73;;
15936;SDS011;9163;48.818;8.976;2023-03-12T13:57:00;6.93;;;1.90;;
15936;SDS011;9163;48.818;8.976;2023-03-12T13:59:30;6.43;;;1.87;;
15936;SDS011;9163;48.818;8.976;2023-03-12T14:01:59;8.60;;;1.70;;
15936;SDS011;9163;48.818;8.976;2023-03-12T14:04:34;7.47;;;1.73;;
15936;SDS011;9163;48.818;8.976;2023-03-12T14:07:09;4.90;;;1.10;;
15936;SDS011;9163;48.818;8.976;2023-03-12T14:10:01;5.47;;;1.70;;
15936;SDS011;9163;48.818;8.976;2023-03-12T14:12:36;4.57;;;1.43;;
15936;SDS011;9163;48.818;8.976;2023-03-12T14:15:17;6.33;;;1.90;;
15936;SDS011;9163;48.818;8.976;2023-03-12T14:17:53;5.77;;;1.70;;
15936;SDS011;9163;48.818;8.976;2023-03-12T14:20:25;8.80;;;1.80;;
15936;SDS011;9163;48.818;8.976;2023-03-12T14:22:54;8.07;;;2.33;;
15936;SDS011;9163;48.818;8.976;2023-03-12T14:25:30;8.40;;;2.03;;
15936;SDS011;9163;48.818;8.976;2023-03-12T14:28:00;7.57;;;1.53;;
15936;SDS011;9163;48.818;8.976;2023-03-12T14:30:30;6.27;;;1.80;;
15936;SDS011;9163;48.818;8.976;2023-03-12T14:33:05;5.60;;;1.50;;
15936;SDS011;9163;48.818;8.976;2023-03-12T14:35:37;9.17;;;2.00;;
15936;SDS011;9163;48.818;8.976;2023-03-12T14:38:10;5.27;;;1.80;;
15936;SDS011;9163;48.818;8.976;2023-03-12T14:40:42;5.80;;;1.60;;
15936;SDS011;9163;48.818;8.976;2023-03-12T14:43:21;3.80;;;1.60;;
15936;SDS011;9163;48.818;8.976;2023-03-12T14:45:50;7.27;;;1.57;;
15936;SDS011;9163;48.818;8.976;2023-03-12T14:48:22;5.87;;;2.17;;
15936;SDS011;9163;48.818;8.976;2023-03-12T14:50:51;6.07;;;1.90;;
15936;SDS011;9163;48.818;8.976;2023-03-12T14:53:19;4.60;;;1.37;;
15936;SDS011;9163;48.818;8.976;2023-03-12T14:56:02;5.57;;;2.00;;
15936;SDS011;9163;48.818;8.976;2023-03-12T14:58:32;6.93;;;1.80;;
15936;SDS011;9163;48.818;8.976;2023-03-12T15:01:02;6.40;;;2.30;;
15936;SDS011;9163;48.818;8.976;2023-03-12T15:03:32;7.20;;;2.10;;
15936;SDS011;9163;48.818;8.976;2023-03-12T15:06:12;7.97;;;2.33;;
15936;SDS011;9163;48.818;8.976;2023-03-12T15:08:43;7.87;;;3.37;;
15936;SDS011;9163;48.818;8.976;2023-03-12T15:11:11;9.13;;;3.60;;
15936;SDS011;9163;48.818;8.976;2023-03-12T15:13:38;7.53;;;1.80;;
15936;SDS011;9163;48.818;8.976;2023-03-12T15:16:06;4.87;;;1.60;;
15936;SDS011;9163;48.818;8.976;2023-03-12T15:18:33;5.57;;;2.07;;
15936;SDS011;9163;48.818;8.976;2023-03-12T15:21:02;4.40;;;1.90;;
15936;SDS011;9163;48.818;8.976;2023-03-12T15:23:32;8.77;;;2.00;;